Time;durP1;ratioP1;P1;durP2;ratioP2;P2;SDS_P1;SDS_P2;PMS_P1;PMS_P2;Temp;Humidity;BMP_temperature;BMP_pressure;BME280_temperature;BME280_humidity;BME280_pressure;Samples;Min_cycle;Max_cycle;Signal;HPM_P1;HPM_P2
2022/09/03 00:01:18;;;;;;;1999.90;999.90;;;;;;;;;;5052632;28;20901;-76
2022/09/03 00:03:47;;;;;;;1999.90;999.90;;;;;;;;;;5074173;28;20407;-77
2022/09/03 00:06:16;;;;;;;1999.90;999.90;;;;;;;;;;5082945;28;20414;-76
2022/09/03 00:08:46;;;;;;;1999.90;999.90;;;;;;;;;;5070922;28;20470;-75
2022/09/03 00:11:17;;;;;;;1999.90;999.90;;;;;;;;;;5092319;27;20464;-76
2022/09/03 00:13:48;;;;;;;1999.90;999.90;;;;;;;;;;5074024;28;21244;-75
2022/09/03 00:16:20;;;;;;;1999.90;999.90;;;;;;;;;;5071603;28;20432;-76
2022/09/03 00:18:50;;;;;;;1999.90;999.90;;;;;;;;;;5068508;28;20417;-75
2022/09/03 00:21:21;;;;;;;1999.90;999.90;;;;;;;;;;5071455;28;21321;-75
2022/09/03 00:23:50;;;;;;;1999.90;999.90;;;;;;;;;;5084074;28;20393;-75
2022/09/03 00:26:21;;;;;;;1999.90;999.90;;;;;;;;;;5085703;27;22367;-75
2022/09/03 00:28:51;;;;;;;1999.90;999.90;;;;;;;;;;5054986;28;20407;-75
2022/09/03 00:31:25;;;;;;;1999.90;999.90;;;;;;;;;;5085550;28;20393;-78
2022/09/03 00:33:56;;;;;;;1999.90;999.90;;;;;;;;;;5069895;28;20402;-76
2022/09/03 00:36:26;;;;;;;1999.90;999.90;;;;;;;;;;5071250;28;21111;-76
2022/09/03 00:38:54;;;;;;;1999.90;999.90;;;;;;;;;;5089297;27;20408;-76
2022/09/03 00:41:30;;;;;;;1999.90;999.90;;;;;;;;;;5074544;28;21578;-76
2022/09/03 00:44:07;;;;;;;1999.90;999.90;;;;;;;;;;5075036;28;20363;-75
2022/09/03 00:46:41;;;;;;;1999.90;999.90;;;;;;;;;;5075875;28;20364;-75
2022/09/03 00:49:22;;;;;;;1999.90;999.90;;;;;;;;;;5075010;28;20396;-75
2022/09/03 00:51:53;;;;;;;1999.90;999.90;;;;;;;;;;5070255;28;20766;-76
2022/09/03 00:54:25;;;;;;;1999.90;999.90;;;;;;;;;;5073186;28;20402;-75
2022/09/03 00:56:58;;;;;;;1999.90;999.90;;;;;;;;;;5080979;28;20403;-75
2022/09/03 00:59:32;;;;;;;1999.90;999.90;;;;;;;;;;5069640;28;20521;-75
2022/09/03 01:02:08;;;;;;;1999.90;999.90;;;;;;;;;;5068925;28;20390;-76
2022/09/03 01:04:41;;;;;;;1999.90;999.90;;;;;;;;;;5072528;28;20441;-75
2022/09/03 01:07:14;;;;;;;1999.90;999.90;;;;;;;;;;5069443;28;20795;-75
2022/09/03 01:09:47;;;;;;;1999.90;999.90;;;;;;;;;;5067324;28;20409;-75
2022/09/03 01:12:18;;;;;;;1999.90;999.90;;;;;;;;;;5070018;28;20391;-75
2022/09/03 01:14:52;;;;;;;1999.90;999.90;;;;;;;;;;5074879;28;20433;-75
2022/09/03 01:17:25;;;;;;;1999.90;999.90;;;;;;;;;;5082002;28;21225;-75
2022/09/03 01:19:59;;;;;;;1999.90;999.90;;;;;;;;;;5074669;28;21220;-76
2022/09/03 01:22:51;;;;;;;1999.90;999.90;;;;;;;;;;5068310;28;20390;-75
2022/09/03 01:25:30;;;;;;;1999.90;999.90;;;;;;;;;;5073812;28;20778;-76
2022/09/03 01:28:05;;;;;;;1999.90;999.90;;;;;;;;;;5069989;28;20355;-75
2022/09/03 01:30:38;;;;;;;1999.90;999.90;;;;;;;;;;5068406;28;20421;-76
2022/09/03 01:33:12;;;;;;;1999.90;999.90;;;;;;;;;;5054737;28;20378;-76
2022/09/03 01:35:44;;;;;;;1999.90;999.90;;;;;;;;;;5054768;28;20391;-75
2022/09/03 01:38:16;;;;;;;1999.90;999.90;;;;;;;;;;5069539;28;20386;-76
2022/09/03 01:40:48;;;;;;;1999.90;999.90;;;;;;;;;;5070095;28;20416;-76
2022/09/03 01:43:22;;;;;;;1999.90;999.90;;;;;;;;;;5071825;28;20387;-75
2022/09/03 01:45:52;;;;;;;1999.90;999.90;;;;;;;;;;5063979;28;20449;-75
2022/09/03 01:48:30;;;;;;;1999.90;999.90;;;;;;;;;;5071965;28;20403;-75
2022/09/03 01:51:03;;;;;;;1999.90;999.90;;;;;;;;;;5069210;28;20414;-75
2022/09/03 01:53:38;;;;;;;1999.90;999.90;;;;;;;;;;5072688;28;20503;-75
2022/09/03 01:56:15;;;;;;;1999.90;999.90;;;;;;;;;;5065839;28;20869;-75
2022/09/03 01:58:45;;;;;;;1999.90;999.90;;;;;;;;;;5072410;28;21973;-75
2022/09/03 02:01:16;;;;;;;1999.90;999.90;;;;;;;;;;5068083;28;20913;-76
2022/09/03 02:03:45;;;;;;;1999.90;999.90;;;;;;;;;;5065908;28;21314;-75
2022/09/03 02:06:14;;;;;;;1999.90;999.90;;;;;;;;;;5065530;28;20412;-75
2022/09/03 02:08:42;;;;;;;1999.90;999.90;;;;;;;;;;5070773;28;20393;-75
2022/09/03 02:11:10;;;;;;;1999.90;999.90;;;;;;;;;;5078333;28;20410;-75
2022/09/03 02:13:39;;;;;;;1999.90;999.90;;;;;;;;;;5069567;28;20401;-75
2022/09/03 02:16:11;;;;;;;1999.90;999.90;;;;;;;;;;5050351;28;20410;-75
2022/09/03 02:18:41;;;;;;;1999.90;999.90;;;;;;;;;;5087240;27;20402;-75
2022/09/03 02:21:10;;;;;;;1999.90;999.90;;;;;;;;;;5072338;28;20421;-75
2022/09/03 02:23:39;;;;;;;1999.90;999.90;;;;;;;;;;5091066;27;20413;-75
2022/09/03 02:26:08;;;;;;;1999.90;999.90;;;;;;;;;;5074808;28;20397;-75
2022/09/03 02:28:36;;;;;;;1999.90;999.90;;;;;;;;;;5073967;28;20557;-76
2022/09/03 02:31:04;;;;;;;1999.90;999.90;;;;;;;;;;5074689;28;20381;-76
2022/09/03 02:33:35;;;;;;;1999.90;999.90;;;;;;;;;;5075160;28;20504;-76
2022/09/03 02:36:04;;;;;;;1999.90;999.90;;;;;;;;;;5081600;28;20436;-75
2022/09/03 02:38:32;;;;;;;1999.90;999.90;;;;;;;;;;5072695;28;20412;-75
2022/09/03 02:41:00;;;;;;;1999.90;999.90;;;;;;;;;;5084544;28;20523;-75
2022/09/03 02:43:31;;;;;;;1999.90;999.90;;;;;;;;;;5073448;28;20398;-76
2022/09/03 02:46:01;;;;;;;1999.90;999.90;;;;;;;;;;5076107;28;20435;-75
2022/09/03 02:48:29;;;;;;;1999.90;999.90;;;;;;;;;;5085452;28;21124;-75
2022/09/03 02:50:58;;;;;;;1999.90;999.90;;;;;;;;;;5075674;28;20409;-75
2022/09/03 02:53:27;;;;;;;1999.90;999.90;;;;;;;;;;5072682;28;20492;-76
2022/09/03 02:55:57;;;;;;;1999.90;999.90;;;;;;;;;;5072969;28;20442;-76
2022/09/03 02:58:25;;;;;;;1999.90;999.90;;;;;;;;;;5075394;28;20386;-76
2022/09/03 03:00:53;;;;;;;1999.90;999.90;;;;;;;;;;5071289;28;20463;-76
2022/09/03 03:03:21;;;;;;;1999.90;999.90;;;;;;;;;;5073944;28;21183;-76
2022/09/03 03:05:50;;;;;;;1999.90;999.90;;;;;;;;;;5074762;28;20984;-76
2022/09/03 03:08:23;;;;;;;1999.90;999.90;;;;;;;;;;5097218;27;20499;-76
2022/09/03 03:10:52;;;;;;;1999.90;999.90;;;;;;;;;;5084131;28;20410;-76
2022/09/03 03:13:20;;;;;;;1999.90;999.90;;;;;;;;;;5074775;28;20409;-76
2022/09/03 03:15:48;;;;;;;1999.90;999.90;;;;;;;;;;5071089;28;20401;-75
2022/09/03 03:18:16;;;;;;;1999.90;999.90;;;;;;;;;;5074980;28;20399;-75
2022/09/03 03:20:44;;;;;;;1999.90;999.90;;;;;;;;;;5074394;28;20527;-77
2022/09/03 03:23:12;;;;;;;1999.90;999.90;;;;;;;;;;5071081;28;20426;-74
2022/09/03 03:25:41;;;;;;;1999.90;999.90;;;;;;;;;;5084174;28;20385;-75
2022/09/03 03:28:09;;;;;;;1999.90;999.90;;;;;;;;;;5071041;28;20399;-75
2022/09/03 03:30:37;;;;;;;1999.90;999.90;;;;;;;;;;5075080;28;20903;-75
2022/09/03 03:33:05;;;;;;;1999.90;999.90;;;;;;;;;;5074649;28;20398;-75
2022/09/03 03:35:33;;;;;;;1999.90;999.90;;;;;;;;;;5068827;28;20393;-75
2022/09/03 03:38:01;;;;;;;1999.90;999.90;;;;;;;;;;5072329;28;20914;-74
2022/09/03 03:40:28;;;;;;;1999.90;999.90;;;;;;;;;;5073289;28;20892;-74
2022/09/03 03:42:58;;;;;;;1999.90;999.90;;;;;;;;;;5071263;28;20406;-75
2022/09/03 03:45:27;;;;;;;1999.90;999.90;;;;;;;;;;5068644;28;20860;-76
2022/09/03 03:47:57;;;;;;;1999.90;999.90;;;;;;;;;;5082612;28;20387;-75
2022/09/03 03:50:25;;;;;;;1999.90;999.90;;;;;;;;;;5072773;28;20489;-74
2022/09/03 03:52:53;;;;;;;1999.90;999.90;;;;;;;;;;5076120;28;21521;-79
2022/09/03 03:55:21;;;;;;;1999.90;999.90;;;;;;;;;;5080103;28;21231;-78
2022/09/03 03:57:50;;;;;;;1999.90;999.90;;;;;;;;;;5075386;28;20451;-76
2022/09/03 04:00:20;;;;;;;1999.90;999.90;;;;;;;;;;5070807;28;20772;-77
2022/09/03 04:02:51;;;;;;;1999.90;999.90;;;;;;;;;;5075482;28;20500;-76
2022/09/03 04:05:19;;;;;;;1999.90;999.90;;;;;;;;;;5074018;28;20392;-78
2022/09/03 04:07:50;;;;;;;1999.90;999.90;;;;;;;;;;5073640;28;20389;-75
2022/09/03 04:10:18;;;;;;;1999.90;999.90;;;;;;;;;;5077221;28;20419;-76
2022/09/03 04:12:46;;;;;;;1999.90;999.90;;;;;;;;;;5074804;28;20436;-76
2022/09/03 04:15:13;;;;;;;1999.90;999.90;;;;;;;;;;5076611;28;20401;-76
2022/09/03 04:17:42;;;;;;;1999.90;999.90;;;;;;;;;;5077538;28;20395;-75
2022/09/03 04:20:10;;;;;;;1999.90;999.90;;;;;;;;;;5075587;28;20407;-75
2022/09/03 04:22:38;;;;;;;1999.90;999.90;;;;;;;;;;5081868;28;20383;-75
2022/09/03 04:25:06;;;;;;;1999.90;999.90;;;;;;;;;;5099080;28;20892;-75
2022/09/03 04:27:34;;;;;;;1999.90;999.90;;;;;;;;;;5070353;28;20391;-76
2022/09/03 04:30:02;;;;;;;1999.90;999.90;;;;;;;;;;5092146;28;20530;-78
2022/09/03 04:35:15;;;;;;;1999.90;999.90;;;;;;;;;;5086758;28;21258;-77
2022/09/03 04:37:42;;;;;;;1999.90;999.90;;;;;;;;;;5096516;28;20359;-74
2022/09/03 04:40:10;;;;;;;1999.90;999.90;;;;;;;;;;5095847;28;20452;-71
2022/09/03 04:42:39;;;;;;;1999.90;999.90;;;;;;;;;;5079270;28;20386;-70
2022/09/03 04:45:07;;;;;;;1999.90;999.90;;;;;;;;;;5070504;28;20489;-70
2022/09/03 04:47:36;;;;;;;1999.90;999.90;;;;;;;;;;5072059;28;20387;-71
2022/09/03 04:50:04;;;;;;;1999.90;999.90;;;;;;;;;;5089587;27;20441;-73
2022/09/03 04:52:33;;;;;;;1999.90;999.90;;;;;;;;;;5073283;28;21111;-72
2022/09/03 04:55:01;;;;;;;1999.90;999.90;;;;;;;;;;5066450;28;20419;-71
2022/09/03 04:57:33;;;;;;;1999.90;999.90;;;;;;;;;;5072244;28;20407;-72
2022/09/03 05:00:00;;;;;;;1999.90;999.90;;;;;;;;;;5080817;28;20424;-71
2022/09/03 05:02:28;;;;;;;1999.90;999.90;;;;;;;;;;5068845;28;20440;-71
2022/09/03 05:04:56;;;;;;;1999.90;999.90;;;;;;;;;;5092392;27;20401;-71
2022/09/03 05:07:26;;;;;;;1999.90;999.90;;;;;;;;;;5070173;28;20439;-71
2022/09/03 05:09:57;;;;;;;1999.90;999.90;;;;;;;;;;5068810;28;20464;-71
2022/09/03 05:12:25;;;;;;;1999.90;999.90;;;;;;;;;;5069824;28;20398;-72
2022/09/03 05:14:53;;;;;;;1999.90;999.90;;;;;;;;;;5068904;28;20406;-71
2022/09/03 05:17:20;;;;;;;1999.90;999.90;;;;;;;;;;5072007;27;20399;-72
2022/09/03 05:19:48;;;;;;;1999.90;999.90;;;;;;;;;;5081299;28;20418;-71
2022/09/03 05:22:20;;;;;;;1999.90;999.90;;;;;;;;;;5081069;28;20403;-72
2022/09/03 05:24:48;;;;;;;1999.90;999.90;;;;;;;;;;5067566;28;20399;-71
2022/09/03 05:27:17;;;;;;;1999.90;999.90;;;;;;;;;;5071666;28;20418;-72
2022/09/03 05:29:45;;;;;;;1999.90;999.90;;;;;;;;;;5067682;28;20410;-71
2022/09/03 05:32:13;;;;;;;1999.90;999.90;;;;;;;;;;5068015;28;20393;-72
2022/09/03 05:34:40;;;;;;;1999.90;999.90;;;;;;;;;;5068862;28;21231;-71
2022/09/03 05:37:08;;;;;;;1999.90;999.90;;;;;;;;;;5066986;28;20916;-71
2022/09/03 05:39:36;;;;;;;1999.90;999.90;;;;;;;;;;5070267;28;20414;-72
2022/09/03 05:42:04;;;;;;;1999.90;999.90;;;;;;;;;;5068463;28;20852;-71
2022/09/03 05:44:35;;;;;;;1999.90;999.90;;;;;;;;;;5070949;28;20391;-71
2022/09/03 05:47:02;;;;;;;1999.90;999.90;;;;;;;;;;5070911;28;20407;-72
2022/09/03 05:49:30;;;;;;;1999.90;999.90;;;;;;;;;;5076599;28;20405;-71
2022/09/03 05:51:58;;;;;;;1999.90;999.90;;;;;;;;;;5067205;28;20426;-71
2022/09/03 05:54:26;;;;;;;1999.90;999.90;;;;;;;;;;5089683;27;20881;-72
2022/09/03 05:56:54;;;;;;;1999.90;999.90;;;;;;;;;;5064403;28;20407;-70
2022/09/03 05:59:22;;;;;;;1999.90;999.90;;;;;;;;;;5065668;28;20409;-72
2022/09/03 06:01:51;;;;;;;1999.90;999.90;;;;;;;;;;5069908;28;20396;-71
2022/09/03 06:04:24;;;;;;;1999.90;999.90;;;;;;;;;;5070751;28;20419;-71
2022/09/03 06:06:52;;;;;;;1999.90;999.90;;;;;;;;;;5070789;28;20893;-71
2022/09/03 06:09:20;;;;;;;1999.90;999.90;;;;;;;;;;5067073;28;20442;-71
2022/09/03 06:11:50;;;;;;;1999.90;999.90;;;;;;;;;;5067758;28;20385;-71
2022/09/03 06:14:19;;;;;;;1999.90;999.90;;;;;;;;;;5074187;28;20391;-71
2022/09/03 06:16:48;;;;;;;1999.90;999.90;;;;;;;;;;5069658;28;20398;-72
2022/09/03 06:19:18;;;;;;;1999.90;999.90;;;;;;;;;;5075359;28;21150;-71
2022/09/03 06:21:46;;;;;;;1999.90;999.90;;;;;;;;;;5064776;28;20405;-72
2022/09/03 06:24:15;;;;;;;1999.90;999.90;;;;;;;;;;5064461;28;20487;-71
2022/09/03 06:26:42;;;;;;;1999.90;999.90;;;;;;;;;;5075260;28;20415;-71
2022/09/03 06:29:10;;;;;;;1999.90;999.90;;;;;;;;;;5068658;28;20411;-71
2022/09/03 06:31:38;;;;;;;1999.90;999.90;;;;;;;;;;5065247;28;20410;-71
2022/09/03 06:34:07;;;;;;;1999.90;999.90;;;;;;;;;;5071520;28;20436;-72
2022/09/03 06:36:36;;;;;;;1999.90;999.90;;;;;;;;;;5078540;28;20476;-73
2022/09/03 06:39:04;;;;;;;1999.90;999.90;;;;;;;;;;5064372;28;20414;-72
2022/09/03 06:41:34;;;;;;;1999.90;999.90;;;;;;;;;;5065471;28;20399;-71
2022/09/03 06:44:02;;;;;;;1999.90;999.90;;;;;;;;;;5071639;28;20431;-73
2022/09/03 06:46:31;;;;;;;1999.90;999.90;;;;;;;;;;5076134;28;20444;-73
2022/09/03 06:48:59;;;;;;;1999.90;999.90;;;;;;;;;;5082687;28;21095;-73
2022/09/03 06:51:27;;;;;;;1999.90;999.90;;;;;;;;;;5072281;28;20418;-73
2022/09/03 06:54:01;;;;;;;1999.90;999.90;;;;;;;;;;5065069;28;20482;-76
2022/09/03 06:56:29;;;;;;;1999.90;999.90;;;;;;;;;;5068597;28;20845;-74
2022/09/03 06:59:04;;;;;;;1999.90;999.90;;;;;;;;;;5073955;28;20415;-72
2022/09/03 07:01:33;;;;;;;1999.90;999.90;;;;;;;;;;5066985;28;20395;-71
2022/09/03 07:04:01;;;;;;;1999.90;999.90;;;;;;;;;;5067320;28;20393;-72
2022/09/03 07:06:30;;;;;;;1999.90;999.90;;;;;;;;;;5066701;28;20386;-72
2022/09/03 07:08:59;;;;;;;1999.90;999.90;;;;;;;;;;5069341;28;20417;-72
2022/09/03 07:11:30;;;;;;;1999.90;999.90;;;;;;;;;;5069124;28;20428;-70
2022/09/03 07:13:58;;;;;;;1999.90;999.90;;;;;;;;;;5071485;28;20409;-73
2022/09/03 07:16:27;;;;;;;1999.90;999.90;;;;;;;;;;5066174;28;21038;-74
2022/09/03 07:18:55;;;;;;;1999.90;999.90;;;;;;;;;;5073154;28;20419;-74
2022/09/03 07:21:24;;;;;;;1999.90;999.90;;;;;;;;;;5076595;28;20459;-73
2022/09/03 07:23:52;;;;;;;1999.90;999.90;;;;;;;;;;5082053;28;20419;-74
2022/09/03 07:26:22;;;;;;;1999.90;999.90;;;;;;;;;;5074979;28;20389;-74
2022/09/03 07:28:50;;;;;;;1999.90;999.90;;;;;;;;;;5067932;28;20921;-73
2022/09/03 07:31:20;;;;;;;1999.90;999.90;;;;;;;;;;5069561;28;21178;-73
2022/09/03 07:33:48;;;;;;;1999.90;999.90;;;;;;;;;;5081386;28;20479;-73
2022/09/03 07:36:16;;;;;;;1999.90;999.90;;;;;;;;;;5072033;28;20425;-72
2022/09/03 07:38:45;;;;;;;1999.90;999.90;;;;;;;;;;5074880;28;20406;-73
2022/09/03 07:41:13;;;;;;;1999.90;999.90;;;;;;;;;;5069905;28;20387;-73
2022/09/03 07:43:56;;;;;;;1999.90;999.90;;;;;;;;;;5073422;28;20399;-72
2022/09/03 07:46:25;;;;;;;1999.90;999.90;;;;;;;;;;5068072;28;20411;-72
2022/09/03 07:48:54;;;;;;;1999.90;999.90;;;;;;;;;;5071296;28;20410;-73
2022/09/03 07:51:25;;;;;;;1999.90;999.90;;;;;;;;;;5070214;28;20588;-73
2022/09/03 07:53:54;;;;;;;1999.90;999.90;;;;;;;;;;5089221;27;20407;-73
2022/09/03 07:56:22;;;;;;;1999.90;999.90;;;;;;;;;;5082870;28;20388;-72
2022/09/03 07:58:50;;;;;;;1999.90;999.90;;;;;;;;;;5071062;28;20421;-72
2022/09/03 08:01:21;;;;;;;1999.90;999.90;;;;;;;;;;5084070;28;20388;-73
2022/09/03 08:03:49;;;;;;;1999.90;999.90;;;;;;;;;;5069619;28;20399;-73
2022/09/03 08:06:18;;;;;;;1999.90;999.90;;;;;;;;;;5087298;27;20391;-73
2022/09/03 08:08:45;;;;;;;1999.90;999.90;;;;;;;;;;5070923;28;20411;-72
2022/09/03 08:11:14;;;;;;;1999.90;999.90;;;;;;;;;;5078781;28;20377;-72
2022/09/03 08:13:43;;;;;;;1999.90;999.90;;;;;;;;;;5073373;28;20401;-72
2022/09/03 08:16:11;;;;;;;1999.90;999.90;;;;;;;;;;5074963;28;20422;-72
2022/09/03 08:18:40;;;;;;;1999.90;999.90;;;;;;;;;;5077426;28;20531;-72
2022/09/03 08:21:09;;;;;;;1999.90;999.90;;;;;;;;;;5071364;28;20880;-72
2022/09/03 08:23:37;;;;;;;1999.90;999.90;;;;;;;;;;5052938;28;20536;-74
2022/09/03 08:26:05;;;;;;;1999.90;999.90;;;;;;;;;;5085812;27;20389;-73
2022/09/03 08:28:33;;;;;;;1999.90;999.90;;;;;;;;;;5072496;28;20453;-72
2022/09/03 08:31:05;;;;;;;1999.90;999.90;;;;;;;;;;5075165;28;20902;-73
2022/09/03 08:33:41;;;;;;;1999.90;999.90;;;;;;;;;;5073747;28;20394;-72
2022/09/03 08:36:11;;;;;;;1999.90;999.90;;;;;;;;;;5075188;28;20407;-71
2022/09/03 08:38:41;;;;;;;1999.90;999.90;;;;;;;;;;5074599;28;20428;-72
2022/09/03 08:41:11;;;;;;;1999.90;999.90;;;;;;;;;;5088736;27;20437;-72
2022/09/03 08:43:49;;;;;;;1999.90;999.90;;;;;;;;;;5077115;28;20395;-72
2022/09/03 08:46:17;;;;;;;1999.90;999.90;;;;;;;;;;5071004;28;20388;-71
2022/09/03 08:48:46;;;;;;;1999.90;999.90;;;;;;;;;;5078603;28;20417;-71
2022/09/03 08:51:16;;;;;;;1999.90;999.90;;;;;;;;;;5071893;28;21200;-72
2022/09/03 08:53:46;;;;;;;1999.90;999.90;;;;;;;;;;5081064;28;20391;-71
2022/09/03 08:56:16;;;;;;;1999.90;999.90;;;;;;;;;;5067200;28;20992;-71
2022/09/03 08:58:44;;;;;;;1999.90;999.90;;;;;;;;;;5080236;28;20460;-72
2022/09/03 09:01:16;;;;;;;1999.90;999.90;;;;;;;;;;5069478;28;20409;-73
2022/09/03 09:03:49;;;;;;;1999.90;999.90;;;;;;;;;;5072499;28;20421;-72
2022/09/03 09:06:19;;;;;;;1999.90;999.90;;;;;;;;;;5066990;28;20403;-72
2022/09/03 09:08:59;;;;;;;1999.90;999.90;;;;;;;;;;5081292;28;20513;-72
2022/09/03 09:11:32;;;;;;;1999.90;999.90;;;;;;;;;;5054236;28;20404;-71
2022/09/03 09:14:02;;;;;;;1999.90;999.90;;;;;;;;;;5070897;28;20413;-71
2022/09/03 09:16:36;;;;;;;1999.90;999.90;;;;;;;;;;5068172;28;20398;-71
2022/09/03 09:19:10;;;;;;;1999.90;999.90;;;;;;;;;;5075139;28;20850;-71
2022/09/03 09:21:45;;;;;;;1999.90;999.90;;;;;;;;;;5081940;28;20381;-72
2022/09/03 09:24:18;;;;;;;1999.90;999.90;;;;;;;;;;5066678;28;20832;-74
2022/09/03 09:26:46;;;;;;;1999.90;999.90;;;;;;;;;;5071682;28;20511;-69
2022/09/03 09:29:14;;;;;;;1999.90;999.90;;;;;;;;;;5070990;28;20426;-68
2022/09/03 09:31:43;;;;;;;1999.90;999.90;;;;;;;;;;5072132;28;20397;-68
2022/09/03 09:34:11;;;;;;;1999.90;999.90;;;;;;;;;;5069553;28;20382;-69
2022/09/03 09:36:45;;;;;;;1999.90;999.90;;;;;;;;;;5065949;28;20413;-68
2022/09/03 09:39:15;;;;;;;1999.90;999.90;;;;;;;;;;5065925;28;20497;-69
2022/09/03 09:41:43;;;;;;;1999.90;999.90;;;;;;;;;;5070698;28;20411;-70
2022/09/03 09:44:19;;;;;;;1999.90;999.90;;;;;;;;;;5069207;28;20471;-71
2022/09/03 09:46:47;;;;;;;1999.90;999.90;;;;;;;;;;5067712;28;20469;-71
2022/09/03 09:49:28;;;;;;;1999.90;999.90;;;;;;;;;;5079668;28;20526;-71
2022/09/03 09:52:05;;;;;;;1999.90;999.90;;;;;;;;;;5069462;28;20836;-70
2022/09/03 09:54:33;;;;;;;1999.90;999.90;;;;;;;;;;5073255;28;20409;-70
2022/09/03 09:57:02;;;;;;;1999.90;999.90;;;;;;;;;;5066471;28;20395;-71
2022/09/03 09:59:30;;;;;;;1999.90;999.90;;;;;;;;;;5065128;28;20411;-70
2022/09/03 10:02:10;;;;;;;1999.90;999.90;;;;;;;;;;5068340;28;22105;-70
2022/09/03 10:04:42;;;;;;;1999.90;999.90;;;;;;;;;;5071870;28;20393;-70
2022/09/03 10:07:21;;;;;;;1999.90;999.90;;;;;;;;;;5069401;28;20825;-69
2022/09/03 10:09:58;;;;;;;1999.90;999.90;;;;;;;;;;5067870;28;20421;-70
2022/09/03 10:12:28;;;;;;;1999.90;999.90;;;;;;;;;;5069241;28;20387;-70
2022/09/03 10:14:57;;;;;;;1999.90;999.90;;;;;;;;;;5068318;28;20947;-69
2022/09/03 10:17:28;;;;;;;1999.90;999.90;;;;;;;;;;5068212;28;21609;-70
2022/09/03 10:20:30;;;;;;;1999.90;999.90;;;;;;;;;;5066670;28;21031;-70
2022/09/03 10:23:03;;;;;;;1999.90;999.90;;;;;;;;;;5065574;28;20905;-70
2022/09/03 10:25:37;;;;;;;1999.90;999.90;;;;;;;;;;5068119;28;20417;-71
2022/09/03 10:28:07;;;;;;;1999.90;999.90;;;;;;;;;;5082167;27;21141;-70
2022/09/03 10:30:48;;;;;;;1999.90;999.90;;;;;;;;;;5066965;28;20499;-70
2022/09/03 10:33:19;;;;;;;1999.90;999.90;;;;;;;;;;5087266;27;20430;-70
2022/09/03 10:35:52;;;;;;;1999.90;999.90;;;;;;;;;;5065031;28;20541;-71
2022/09/03 10:38:27;;;;;;;1999.90;999.90;;;;;;;;;;5066397;28;20401;-71
2022/09/03 10:40:59;;;;;;;1999.90;999.90;;;;;;;;;;5067101;28;20403;-70
2022/09/03 10:43:34;;;;;;;1999.90;999.90;;;;;;;;;;5066260;28;20382;-70
2022/09/03 10:46:04;;;;;;;1999.90;999.90;;;;;;;;;;5078448;28;20392;-71
2022/09/03 10:48:48;;;;;;;1999.90;999.90;;;;;;;;;;5067022;28;20405;-71
2022/09/03 10:51:19;;;;;;;1999.90;999.90;;;;;;;;;;5068915;28;20406;-71
2022/09/03 10:54:17;;;;;;;1999.90;999.90;;;;;;;;;;5068711;28;20403;-71
2022/09/03 10:56:51;;;;;;;1999.90;999.90;;;;;;;;;;4994241;28;20950;-70
2022/09/03 10:59:28;;;;;;;1999.90;999.90;;;;;;;;;;5059649;28;20425;-70
2022/09/03 11:02:03;;;;;;;1999.90;999.90;;;;;;;;;;5078893;28;20905;-70
2022/09/03 11:04:35;;;;;;;1999.90;999.90;;;;;;;;;;5077702;28;20404;-70
2022/09/03 11:07:05;;;;;;;1999.90;999.90;;;;;;;;;;5062785;28;20471;-70
2022/09/03 11:09:35;;;;;;;1999.90;999.90;;;;;;;;;;5069768;28;20404;-71
2022/09/03 11:12:05;;;;;;;1999.90;999.90;;;;;;;;;;5069396;28;20410;-71
2022/09/03 11:14:35;;;;;;;1999.90;999.90;;;;;;;;;;5071723;28;20425;-70
2022/09/03 11:17:05;;;;;;;1999.90;999.90;;;;;;;;;;5073222;28;20416;-70
2022/09/03 11:19:35;;;;;;;1999.90;999.90;;;;;;;;;;5079835;28;20383;-70
2022/09/03 11:22:05;;;;;;;1999.90;999.90;;;;;;;;;;5068992;28;20416;-70
2022/09/03 11:24:33;;;;;;;1999.90;999.90;;;;;;;;;;5074350;28;20409;-70
2022/09/03 11:27:05;;;;;;;1999.90;999.90;;;;;;;;;;5072629;28;20390;-70
2022/09/03 11:29:39;;;;;;;1999.90;999.90;;;;;;;;;;5073926;28;20464;-71
2022/09/03 11:32:10;;;;;;;1999.90;999.90;;;;;;;;;;5069411;28;21211;-70
2022/09/03 11:34:46;;;;;;;1999.90;999.90;;;;;;;;;;5080175;27;20386;-71
2022/09/03 11:37:18;;;;;;;1999.90;999.90;;;;;;;;;;5086068;27;20903;-71
2022/09/03 11:39:53;;;;;;;1999.90;999.90;;;;;;;;;;5070390;28;20882;-71
2022/09/03 11:42:31;;;;;;;1999.90;999.90;;;;;;;;;;5074569;28;20402;-71
2022/09/03 11:45:13;;;;;;;1999.90;999.90;;;;;;;;;;5066211;28;20400;-74
2022/09/03 11:47:42;;;;;;;1999.90;999.90;;;;;;;;;;5070526;28;20404;-71
2022/09/03 11:50:19;;;;;;;1999.90;999.90;;;;;;;;;;5062068;28;20988;-71
2022/09/03 11:52:47;;;;;;;1999.90;999.90;;;;;;;;;;5068140;28;20469;-73
2022/09/03 11:55:26;;;;;;;1999.90;999.90;;;;;;;;;;5081432;28;20407;-72
2022/09/03 11:57:55;;;;;;;1999.90;999.90;;;;;;;;;;5068780;28;20406;-69
2022/09/03 12:00:25;;;;;;;1999.90;999.90;;;;;;;;;;5071028;28;20402;-70
2022/09/03 12:02:55;;;;;;;1999.90;999.90;;;;;;;;;;5071097;28;20881;-71
2022/09/03 12:05:31;;;;;;;1999.90;999.90;;;;;;;;;;5069980;28;20489;-70
2022/09/03 12:08:11;;;;;;;1999.90;999.90;;;;;;;;;;5068840;28;20945;-70
2022/09/03 12:10:43;;;;;;;1999.90;999.90;;;;;;;;;;5070060;28;20435;-69
2022/09/03 12:13:16;;;;;;;1999.90;999.90;;;;;;;;;;5071781;28;20416;-69
2022/09/03 12:15:54;;;;;;;1999.90;999.90;;;;;;;;;;5068656;28;20474;-69
2022/09/03 12:18:23;;;;;;;1999.90;999.90;;;;;;;;;;5080560;28;20401;-69
2022/09/03 12:21:01;;;;;;;1999.90;999.90;;;;;;;;;;5068157;28;20403;-68
2022/09/03 12:23:30;;;;;;;1999.90;999.90;;;;;;;;;;5079233;28;20400;-68
2022/09/03 12:26:00;;;;;;;1999.90;999.90;;;;;;;;;;5066836;28;20399;-68
2022/09/03 12:28:29;;;;;;;1999.90;999.90;;;;;;;;;;5082871;27;21286;-69
2022/09/03 12:31:07;;;;;;;1999.90;999.90;;;;;;;;;;5068077;28;20420;-69
2022/09/03 12:33:40;;;;;;;1999.90;999.90;;;;;;;;;;5068186;28;20393;-71
2022/09/03 12:36:09;;;;;;;1999.90;999.90;;;;;;;;;;5070095;28;20389;-72
2022/09/03 12:38:36;;;;;;;1999.90;999.90;;;;;;;;;;5067442;28;20415;-72
2022/09/03 12:41:26;;;;;;;1999.90;999.90;;;;;;;;;;5071287;28;20409;-71
2022/09/03 12:43:55;;;;;;;1999.90;999.90;;;;;;;;;;5077578;28;20418;-71
2022/09/03 12:46:26;;;;;;;1999.90;999.90;;;;;;;;;;5066612;28;20445;-71
2022/09/03 12:49:04;;;;;;;1999.90;999.90;;;;;;;;;;5069933;28;20409;-71
2022/09/03 12:51:53;;;;;;;1999.90;999.90;;;;;;;;;;5068332;28;20405;-70
2022/09/03 12:54:25;;;;;;;1999.90;999.90;;;;;;;;;;5066671;28;20421;-71
2022/09/03 12:56:54;;;;;;;1999.90;999.90;;;;;;;;;;5064984;28;20901;-70
2022/09/03 12:59:23;;;;;;;1999.90;999.90;;;;;;;;;;5070198;28;20402;-70
2022/09/03 13:01:54;;;;;;;1999.90;999.90;;;;;;;;;;5069452;28;20391;-72
2022/09/03 13:04:31;;;;;;;1999.90;999.90;;;;;;;;;;5066426;28;21178;-71
2022/09/03 13:07:02;;;;;;;1999.90;999.90;;;;;;;;;;5068716;28;20408;-69
2022/09/03 13:09:32;;;;;;;1999.90;999.90;;;;;;;;;;5068344;28;20396;-69
2022/09/03 13:12:03;;;;;;;1999.90;999.90;;;;;;;;;;5064467;28;20421;-71
2022/09/03 13:14:41;;;;;;;1999.90;999.90;;;;;;;;;;5067853;28;20413;-70
2022/09/03 13:17:20;;;;;;;1999.90;999.90;;;;;;;;;;5068569;28;20432;-69
2022/09/03 13:19:56;;;;;;;1999.90;999.90;;;;;;;;;;5069008;28;20495;-70
2022/09/03 13:22:29;;;;;;;1999.90;999.90;;;;;;;;;;5066886;28;20406;-69
2022/09/03 13:25:15;;;;;;;1999.90;999.90;;;;;;;;;;5075238;28;20410;-73
2022/09/03 13:27:45;;;;;;;1999.90;999.90;;;;;;;;;;5066813;28;20433;-71
2022/09/03 13:30:15;;;;;;;1999.90;999.90;;;;;;;;;;5059445;28;20400;-70
2022/09/03 13:32:59;;;;;;;1999.90;999.90;;;;;;;;;;5064667;28;20415;-71
2022/09/03 13:35:31;;;;;;;1999.90;999.90;;;;;;;;;;5047378;28;20423;-70
2022/09/03 13:38:03;;;;;;;1999.90;999.90;;;;;;;;;;5056848;28;20387;-70
2022/09/03 13:40:35;;;;;;;1999.90;999.90;;;;;;;;;;5064407;28;20389;-70
2022/09/03 13:43:04;;;;;;;1999.90;999.90;;;;;;;;;;5072148;28;20405;-75
2022/09/03 13:45:38;;;;;;;1999.90;999.90;;;;;;;;;;5060757;28;21777;-72
2022/09/03 13:51:02;;;;;;;1999.90;999.90;;;;;;;;;;5061045;28;20809;-73
2022/09/03 13:53:36;;;;;;;1999.90;999.90;;;;;;;;;;5064160;28;20785;-73
2022/09/03 13:56:08;;;;;;;1999.90;999.90;;;;;;;;;;5066741;28;20416;-72
2022/09/03 13:58:41;;;;;;;1999.90;999.90;;;;;;;;;;5051524;28;20404;-71
2022/09/03 14:01:13;;;;;;;1999.90;999.90;;;;;;;;;;5075034;28;20385;-72
2022/09/03 14:03:45;;;;;;;1999.90;999.90;;;;;;;;;;5064550;28;20398;-71
2022/09/03 14:06:20;;;;;;;1999.90;999.90;;;;;;;;;;5066392;28;20791;-70
2022/09/03 14:08:56;;;;;;;1999.90;999.90;;;;;;;;;;5072249;28;20660;-71